createdAt,value
2018-07-20T00:00:43.323Z,53.93
2018-07-20T00:01:46.689Z,53.06
2018-07-20T00:02:50.084Z,53.53
2018-07-20T00:03:53.481Z,53.31
2018-07-20T00:04:56.925Z,53.45
2018-07-20T00:06:00.324Z,53.43
2018-07-20T00:07:03.786Z,53.71
2018-07-20T00:08:07.227Z,53.22
2018-07-20T00:09:10.796Z,53.18
2018-07-20T00:10:14.196Z,53.90
2018-07-20T00:11:17.679Z,53.84
2018-07-20T00:12:21.105Z,53.84
2018-07-20T00:13:24.557Z,53.08
2018-07-20T00:14:27.952Z,53.45
2018-07-20T00:15:31.369Z,53.81
2018-07-20T00:16:34.773Z,53.89
2018-07-20T00:17:38.175Z,53.51
2018-07-20T00:18:41.906Z,53.67
2018-07-20T00:19:45.325Z,53.00
2018-07-20T00:20:48.749Z,53.45
2018-07-20T00:21:52.146Z,53.02
2018-07-20T00:22:55.528Z,53.41
2018-07-20T00:23:58.938Z,53.61
2018-07-20T00:25:02.352Z,53.40
2018-07-20T00:26:06.607Z,53.25
2018-07-20T00:27:09.973Z,53.04
2018-07-20T00:28:13.611Z,53.82
2018-07-20T00:29:17.026Z,53.17
2018-07-20T00:30:20.627Z,53.59
2018-07-20T00:31:24.066Z,53.77
2018-07-20T00:32:27.453Z,53.87
2018-07-20T00:33:30.845Z,53.71
2018-07-20T00:34:34.280Z,53.10
2018-07-20T00:35:37.663Z,53.22
2018-07-20T00:36:41.074Z,52.99
2018-07-20T00:37:44.504Z,53.27
2018-07-20T00:38:47.904Z,53.02
2018-07-20T00:39:51.282Z,53.45
2018-07-20T00:40:54.661Z,52.87
2018-07-20T00:41:58.076Z,53.42
2018-07-20T00:43:01.466Z,53.59
2018-07-20T00:44:04.907Z,52.98
2018-07-20T00:45:08.290Z,53.22
2018-07-20T00:46:11.686Z,52.87
2018-07-20T00:47:15.070Z,52.85
2018-07-20T00:48:18.495Z,52.83
2018-07-20T00:49:21.944Z,53.37
2018-07-20T00:50:25.337Z,52.75
2018-07-20T00:51:28.707Z,53.58
2018-07-20T00:52:32.740Z,53.89
2018-07-20T00:53:37.867Z,53.13
2018-07-20T00:54:41.285Z,53.15
2018-07-20T00:55:44.657Z,53.53
2018-07-20T00:56:48.062Z,53.43
2018-07-20T00:57:51.496Z,53.70
2018-07-20T00:58:54.936Z,53.74
2018-07-20T00:59:58.384Z,53.53
2018-07-20T01:01:01.791Z,53.88
2018-07-20T01:02:05.262Z,53.78
2018-07-20T01:03:08.662Z,53.41
2018-07-20T01:04:12.056Z,53.15
2018-07-20T01:05:15.456Z,53.89
2018-07-20T01:06:18.849Z,52.99
2018-07-20T01:07:22.403Z,53.41
2018-07-20T01:08:25.812Z,53.37
2018-07-20T01:09:29.198Z,53.14
2018-07-20T01:10:32.628Z,53.54
2018-07-20T01:11:36.052Z,53.32
2018-07-20T01:12:39.461Z,53.41
2018-07-20T01:13:42.884Z,52.98
2018-07-20T01:14:46.292Z,53.43
2018-07-20T01:15:49.662Z,53.41
2018-07-20T01:16:53.175Z,53.15
2018-07-20T01:17:56.589Z,53.41
2018-07-20T01:19:00.004Z,53.56
2018-07-20T01:20:04.124Z,53.28
2018-07-20T01:21:07.887Z,53.68
2018-07-20T01:22:11.276Z,53.54
2018-07-20T01:23:14.679Z,53.39
2018-07-20T01:24:18.141Z,54.12
2018-07-20T01:25:21.545Z,53.22
2018-07-20T01:26:24.926Z,53.72
2018-07-20T01:27:28.331Z,53.98
2018-07-20T01:28:31.740Z,54.02
2018-07-20T01:29:35.194Z,53.85
2018-07-20T01:30:38.595Z,53.51
2018-07-20T01:31:41.992Z,53.42
2018-07-20T01:32:45.408Z,53.66
2018-07-20T01:33:48.786Z,53.08
2018-07-20T01:34:52.185Z,53.13
2018-07-20T01:35:55.614Z,53.46
2018-07-20T01:36:58.995Z,53.18
2018-07-20T01:38:02.370Z,53.15
2018-07-20T01:39:07.370Z,53.57
2018-07-20T01:40:10.768Z,53.87
2018-07-20T01:41:14.152Z,53.57
2018-07-20T01:42:17.534Z,53.18
2018-07-20T01:43:20.940Z,53.35
2018-07-20T01:44:24.324Z,52.95
2018-07-20T01:45:27.701Z,52.91
2018-07-20T01:46:31.226Z,53.40
2018-07-20T01:47:35.323Z,53.37
2018-07-20T01:48:38.723Z,53.35
2018-07-20T01:49:42.118Z,53.31
2018-07-20T01:50:45.506Z,53.54
2018-07-20T01:51:48.873Z,52.91
2018-07-20T01:52:52.253Z,53.10
2018-07-20T01:53:55.662Z,53.76
2018-07-20T01:54:59.055Z,53.50
2018-07-20T01:56:02.459Z,52.98
2018-07-20T01:57:05.880Z,53.17
2018-07-20T01:58:09.257Z,53.47
2018-07-20T01:59:12.656Z,52.94
2018-07-20T02:00:16.016Z,53.44
2018-07-20T02:01:19.516Z,53.44
2018-07-20T02:02:22.904Z,53.38
2018-07-20T02:03:26.289Z,53.02
2018-07-20T02:04:29.676Z,52.88
2018-07-20T02:05:33.090Z,53.54
2018-07-20T02:06:36.688Z,52.85
2018-07-20T02:07:40.083Z,53.33
2018-07-20T02:08:43.461Z,53.30
2018-07-20T02:09:46.876Z,53.74
2018-07-20T02:10:56.630Z,53.06
2018-07-20T02:12:00.027Z,53.61
2018-07-20T02:13:03.460Z,52.80
2018-07-20T02:14:06.996Z,53.08
2018-07-20T02:15:10.385Z,52.65
2018-07-20T02:16:13.786Z,52.60
2018-07-20T02:17:17.192Z,52.75
2018-07-20T02:18:20.609Z,53.62
2018-07-20T02:19:23.999Z,53.62
2018-07-20T02:20:27.417Z,53.10
2018-07-20T02:21:30.817Z,53.44
2018-07-20T02:22:34.248Z,52.98
2018-07-20T02:23:37.632Z,53.27
2018-07-20T02:24:41.069Z,52.82
2018-07-20T02:25:44.526Z,53.65
2018-07-20T02:26:47.916Z,53.32
2018-07-20T02:27:51.316Z,53.29
2018-07-20T02:28:54.696Z,53.82
2018-07-20T02:29:58.071Z,52.92
2018-07-20T02:31:01.471Z,53.11
2018-07-20T02:32:04.884Z,53.49
2018-07-20T02:33:08.293Z,52.72
2018-07-20T02:34:11.691Z,52.91
2018-07-20T02:35:15.133Z,53.40
2018-07-20T02:36:18.629Z,53.54
2018-07-20T02:37:22.035Z,53.71
2018-07-20T02:38:25.441Z,53.44
2018-07-20T02:39:28.810Z,53.45
2018-07-20T02:40:32.199Z,53.94
2018-07-20T02:41:35.604Z,53.04
2018-07-20T02:42:39.012Z,52.91
2018-07-20T02:43:42.460Z,53.13
2018-07-20T02:44:45.844Z,53.95
2018-07-20T02:45:49.229Z,53.69
2018-07-20T02:46:52.597Z,53.31
2018-07-20T02:47:55.970Z,53.82
2018-07-20T02:48:59.375Z,53.17
2018-07-20T02:50:02.791Z,53.29
2018-07-20T02:51:06.426Z,53.07
2018-07-20T02:52:09.849Z,53.03
2018-07-20T02:53:13.249Z,52.95
2018-07-20T02:54:16.680Z,53.97
2018-07-20T02:55:20.276Z,53.63
2018-07-20T02:56:23.671Z,53.05
2018-07-20T02:57:27.079Z,53.36
2018-07-20T02:58:30.458Z,53.78
2018-07-20T02:59:33.873Z,53.07
2018-07-20T03:00:37.279Z,53.64
2018-07-20T03:01:40.668Z,53.26
2018-07-20T03:02:44.068Z,53.26
2018-07-20T03:03:47.465Z,53.08
2018-07-20T03:04:50.897Z,53.40
2018-07-20T03:05:54.673Z,53.50
2018-07-20T03:06:58.216Z,53.41
2018-07-20T03:08:01.591Z,53.65
2018-07-20T03:09:08.895Z,53.06
2018-07-20T03:10:12.281Z,54.12
2018-07-20T03:11:15.889Z,54.01
2018-07-20T03:12:19.308Z,53.27
2018-07-20T03:13:22.701Z,53.14
2018-07-20T03:14:26.107Z,53.50
2018-07-20T03:15:29.555Z,53.74
2018-07-20T03:16:32.979Z,53.29
2018-07-20T03:17:36.343Z,53.75
2018-07-20T03:18:39.739Z,53.02
2018-07-20T03:19:43.156Z,53.19
2018-07-20T03:20:46.570Z,53.57
2018-07-20T03:21:50.103Z,53.89
2018-07-20T03:22:53.504Z,53.59
2018-07-20T03:23:56.914Z,53.34
2018-07-20T03:25:00.294Z,53.61
2018-07-20T03:26:03.724Z,53.70
2018-07-20T03:27:07.132Z,53.64
2018-07-20T03:28:10.512Z,53.16
2018-07-20T03:29:13.932Z,53.81
2018-07-20T03:30:17.530Z,53.57
2018-07-20T03:31:20.956Z,53.75
2018-07-20T03:32:24.376Z,53.11
2018-07-20T03:33:27.792Z,53.81
2018-07-20T03:34:31.192Z,53.87
2018-07-20T03:35:34.625Z,54.05
2018-07-20T03:36:38.044Z,53.62
2018-07-20T03:37:41.444Z,53.87
2018-07-20T03:38:44.868Z,53.31
2018-07-20T03:39:48.260Z,53.21
2018-07-20T03:40:51.675Z,53.80
2018-07-20T03:41:55.120Z,53.29
2018-07-20T03:42:58.563Z,53.29
2018-07-20T03:44:01.952Z,53.92
2018-07-20T03:45:06.163Z,53.30
2018-07-20T03:46:09.560Z,53.88
2018-07-20T03:47:13.332Z,53.85
2018-07-20T03:48:16.830Z,53.13
2018-07-20T03:49:20.238Z,53.10
2018-07-20T03:50:23.649Z,53.10
2018-07-20T03:51:27.029Z,53.17
2018-07-20T03:52:30.454Z,53.64
2018-07-20T03:53:33.933Z,53.04
2018-07-20T03:54:37.337Z,53.30
2018-07-20T03:55:40.719Z,53.89
2018-07-20T03:56:44.089Z,53.12
2018-07-20T03:57:47.671Z,53.41
2018-07-20T03:58:51.037Z,53.22
2018-07-20T03:59:54.413Z,53.74
2018-07-20T04:00:57.802Z,53.74
2018-07-20T04:02:01.183Z,52.95
2018-07-20T04:03:04.643Z,53.47
2018-07-20T04:04:08.058Z,54.05
2018-07-20T04:05:11.472Z,53.90
2018-07-20T04:06:14.837Z,54.06
2018-07-20T04:07:18.228Z,54.26
2018-07-20T04:08:21.625Z,53.32
2018-07-20T04:09:25.076Z,54.26
2018-07-20T04:10:28.486Z,54.39
2018-07-20T04:11:31.911Z,53.53
2018-07-20T04:12:35.286Z,53.43
2018-07-20T04:13:38.698Z,54.01
2018-07-20T04:14:42.074Z,54.11
2018-07-20T04:15:45.486Z,53.94
2018-07-20T04:16:48.872Z,54.37
2018-07-20T04:17:52.247Z,54.24
2018-07-20T04:18:55.664Z,53.93
2018-07-20T04:19:59.162Z,54.40
2018-07-20T04:21:02.592Z,53.58
2018-07-20T04:22:05.995Z,54.48
2018-07-20T04:23:09.402Z,54.04
2018-07-20T04:24:12.964Z,54.19
2018-07-20T04:25:16.356Z,54.07
2018-07-20T04:26:19.776Z,53.86
2018-07-20T04:27:23.169Z,54.24
2018-07-20T04:28:26.556Z,53.76
2018-07-20T04:29:30.141Z,54.35
2018-07-20T04:30:33.556Z,54.60
2018-07-20T04:31:36.945Z,54.22
2018-07-20T04:32:40.333Z,54.91
2018-07-20T04:33:43.766Z,54.76
2018-07-20T04:34:47.158Z,53.96
2018-07-20T04:35:50.579Z,54.26
2018-07-20T04:36:54.030Z,54.58
2018-07-20T04:37:57.402Z,54.72
2018-07-20T04:39:00.983Z,54.14
2018-07-20T04:40:04.960Z,54.43
2018-07-20T04:41:08.385Z,54.59
2018-07-20T04:42:11.818Z,54.44
2018-07-20T04:43:15.273Z,54.41
2018-07-20T04:44:18.700Z,54.53
2018-07-20T04:45:22.089Z,54.81
2018-07-20T04:46:25.499Z,54.10
2018-07-20T04:47:28.905Z,53.96
2018-07-20T04:48:32.278Z,54.54
2018-07-20T04:49:35.665Z,54.55
2018-07-20T04:50:39.285Z,54.24
2018-07-20T04:51:42.677Z,54.16
2018-07-20T04:52:46.085Z,54.47
2018-07-20T04:53:49.500Z,54.83
2018-07-20T04:54:52.927Z,54.25
2018-07-20T04:55:56.334Z,54.14
2018-07-20T04:56:59.716Z,54.62
2018-07-20T04:58:03.436Z,54.26
2018-07-20T04:59:06.813Z,54.35
2018-07-20T05:00:10.261Z,54.84
2018-07-20T05:01:13.702Z,54.59
2018-07-20T05:02:17.173Z,54.51
2018-07-20T05:03:20.663Z,53.97
2018-07-20T05:04:24.041Z,54.23
2018-07-20T05:05:27.433Z,54.17
2018-07-20T05:06:30.863Z,54.72
2018-07-20T05:07:34.307Z,54.68
2018-07-20T05:08:37.685Z,54.88
2018-07-20T05:09:41.084Z,54.89
2018-07-20T05:10:44.494Z,54.57
2018-07-20T05:11:47.900Z,54.35
2018-07-20T05:12:51.284Z,54.43
2018-07-20T05:13:54.668Z,54.78
2018-07-20T05:14:58.084Z,54.40
2018-07-20T05:16:01.496Z,54.87
2018-07-20T05:17:04.936Z,54.40
2018-07-20T05:18:08.354Z,54.04
2018-07-20T05:19:11.742Z,54.49
2018-07-20T05:20:15.171Z,54.45
2018-07-20T05:21:18.560Z,54.40
2018-07-20T05:22:22.041Z,53.97
2018-07-20T05:23:25.456Z,54.66
2018-07-20T05:24:28.895Z,54.57
2018-07-20T05:25:32.454Z,54.76
2018-07-20T05:26:36.001Z,54.57
2018-07-20T05:27:39.405Z,54.23
2018-07-20T05:28:42.781Z,54.13
2018-07-20T05:29:46.251Z,54.33
2018-07-20T05:30:49.660Z,54.61
2018-07-20T05:31:53.068Z,54.39
2018-07-20T05:32:56.483Z,54.01
2018-07-20T05:33:59.886Z,54.47
2018-07-20T05:35:03.319Z,53.80
2018-07-20T05:36:07.064Z,54.37
2018-07-20T05:37:10.522Z,54.23
2018-07-20T05:38:13.994Z,54.39
2018-07-20T05:39:17.385Z,54.24
2018-07-20T05:40:20.791Z,54.25
2018-07-20T05:41:24.212Z,53.85
2018-07-20T05:42:27.681Z,54.11
2018-07-20T05:43:31.107Z,53.76
2018-07-20T05:44:34.560Z,54.61
2018-07-20T05:45:37.957Z,54.44
2018-07-20T05:46:41.366Z,54.48
2018-07-20T05:47:44.772Z,53.73
2018-07-20T05:48:48.296Z,53.66
2018-07-20T05:49:51.713Z,54.03
2018-07-20T05:50:55.137Z,53.95
2018-07-20T05:51:58.569Z,54.24
2018-07-20T05:53:02.022Z,54.38
2018-07-20T05:54:05.432Z,54.06
2018-07-20T05:55:08.904Z,54.34
2018-07-20T05:56:12.553Z,53.08
2018-07-20T05:57:16.149Z,53.27
2018-07-20T05:58:19.590Z,52.67
2018-07-20T05:59:23.085Z,51.85
2018-07-20T06:00:26.498Z,52.37
2018-07-20T06:01:30.015Z,51.88
2018-07-20T06:02:33.465Z,52.69
2018-07-20T06:03:36.894Z,52.42
2018-07-20T06:04:40.305Z,51.76
2018-07-20T06:05:43.816Z,50.60
2018-07-20T06:06:47.159Z,51.00
2018-07-20T06:07:50.691Z,50.68
2018-07-20T06:08:54.115Z,49.78
2018-07-20T06:09:57.531Z,49.95
2018-07-20T06:11:01.112Z,49.37
2018-07-20T06:12:04.544Z,49.06
2018-07-20T06:13:07.964Z,48.61
2018-07-20T06:14:11.431Z,49.85
2018-07-20T06:15:14.933Z,49.39
2018-07-20T06:16:18.326Z,48.97
2018-07-20T06:17:21.743Z,49.59
2018-07-20T06:18:25.162Z,49.21
2018-07-20T06:19:28.583Z,48.98
2018-07-20T06:20:31.961Z,49.40
2018-07-20T06:21:35.369Z,48.53
2018-07-20T06:22:39.179Z,49.43
2018-07-20T06:23:42.607Z,48.70
2018-07-20T06:24:46.156Z,49.26
2018-07-20T06:25:49.603Z,49.14
2018-07-20T06:26:53.030Z,48.78
2018-07-20T06:27:56.424Z,48.25
2018-07-20T06:28:59.846Z,48.86
2018-07-20T06:30:03.321Z,48.97
2018-07-20T06:31:06.697Z,49.00
2018-07-20T06:32:10.127Z,48.50
2018-07-20T06:33:13.512Z,48.16
2018-07-20T06:34:16.954Z,48.55
2018-07-20T06:35:20.351Z,48.54
2018-07-20T06:36:23.752Z,48.71
2018-07-20T06:37:27.157Z,48.59
2018-07-20T06:38:30.549Z,48.78
2018-07-20T06:39:34.744Z,49.01
2018-07-20T06:40:38.203Z,48.56
2018-07-20T06:41:42.071Z,48.67
2018-07-20T06:42:45.464Z,48.69
2018-07-20T06:43:48.922Z,48.86
2018-07-20T06:44:52.331Z,48.50
2018-07-20T06:45:55.746Z,49.10
2018-07-20T06:46:59.137Z,49.64
2018-07-20T06:48:02.552Z,48.98
2018-07-20T06:49:06.667Z,49.14
2018-07-20T06:50:16.715Z,49.07
2018-07-20T06:51:20.119Z,48.55
2018-07-20T06:52:23.544Z,49.10
2018-07-20T06:53:26.945Z,49.52
2018-07-20T06:54:30.350Z,48.78
2018-07-20T06:55:33.782Z,49.05
2018-07-20T06:56:37.224Z,49.01
2018-07-20T06:57:40.663Z,49.56
2018-07-20T06:58:44.064Z,48.99
2018-07-20T06:59:47.565Z,49.09
2018-07-20T07:00:50.972Z,49.28
2018-07-20T07:01:54.380Z,49.13
2018-07-20T07:02:57.775Z,49.29
2018-07-20T07:04:01.183Z,48.65
2018-07-20T07:05:05.020Z,49.26
2018-07-20T07:06:08.409Z,49.33
2018-07-20T07:07:11.821Z,49.09
2018-07-20T07:08:15.256Z,49.45
2018-07-20T07:09:18.681Z,48.95
2018-07-20T07:10:22.077Z,49.13
2018-07-20T07:11:25.532Z,49.27
2018-07-20T07:12:28.928Z,49.01
2018-07-20T07:13:32.353Z,49.83
2018-07-20T07:14:35.783Z,49.26
2018-07-20T07:15:39.188Z,49.58
2018-07-20T07:16:42.633Z,49.00
2018-07-20T07:17:46.041Z,49.22
2018-07-20T07:18:49.453Z,49.18
2018-07-20T07:19:52.854Z,49.13
2018-07-20T07:20:56.308Z,49.35
2018-07-20T07:21:59.727Z,49.16
2018-07-20T07:23:03.142Z,49.32
2018-07-20T07:24:06.998Z,49.11
2018-07-20T07:25:10.419Z,49.09
2018-07-20T07:26:13.799Z,49.31
2018-07-20T07:27:17.285Z,49.17
2018-07-20T07:28:20.873Z,49.20
2018-07-20T07:29:24.284Z,49.15
2018-07-20T07:30:27.676Z,49.15
2018-07-20T07:31:31.046Z,49.27
2018-07-20T07:32:34.449Z,49.19
2018-07-20T07:33:37.838Z,49.22
2018-07-20T07:34:41.233Z,49.34
2018-07-20T07:35:44.705Z,49.39
2018-07-20T07:36:48.083Z,49.27
2018-07-20T07:37:51.496Z,49.55
2018-07-20T07:38:54.892Z,49.39
2018-07-20T07:39:58.819Z,49.36
2018-07-20T07:41:02.245Z,49.41
2018-07-20T07:42:05.938Z,49.64
2018-07-20T07:43:09.348Z,49.94
2018-07-20T07:44:12.744Z,49.46
2018-07-20T07:45:16.163Z,49.34
2018-07-20T07:46:19.876Z,49.25
2018-07-20T07:47:23.278Z,49.42
2018-07-20T07:48:26.669Z,49.29
2018-07-20T07:49:30.078Z,49.88
2018-07-20T07:50:33.503Z,49.46
2018-07-20T07:51:37.062Z,49.87
2018-07-20T07:52:40.480Z,49.58
2018-07-20T07:53:43.917Z,49.41
2018-07-20T07:54:47.398Z,49.44
2018-07-20T07:55:50.788Z,49.59
2018-07-20T07:56:54.184Z,49.27
2018-07-20T07:57:57.619Z,49.42
2018-07-20T07:59:01.066Z,49.39
2018-07-20T08:00:05.216Z,49.38
2018-07-20T08:01:08.651Z,49.12
2018-07-20T08:02:12.104Z,49.08
2018-07-20T08:03:15.641Z,49.41
2018-07-20T08:04:18.985Z,49.50
2018-07-20T08:05:22.373Z,49.34
2018-07-20T08:06:25.772Z,49.30
2018-07-20T08:07:29.163Z,49.47
2018-07-20T08:08:32.685Z,49.26
2018-07-20T08:09:36.130Z,49.09
2018-07-20T08:10:39.597Z,49.32
2018-07-20T08:11:43.043Z,49.30
2018-07-20T08:12:46.489Z,49.40
2018-07-20T08:13:50.695Z,49.09
2018-07-20T08:14:54.148Z,49.42
2018-07-20T08:15:57.553Z,49.38
2018-07-20T08:17:00.968Z,49.30
2018-07-20T08:18:04.423Z,49.29
2018-07-20T08:19:07.844Z,49.88
2018-07-20T08:20:11.523Z,49.68
2018-07-20T08:21:14.954Z,50.10
2018-07-20T08:22:18.361Z,49.52
2018-07-20T08:23:21.927Z,49.93
2018-07-20T08:24:25.320Z,49.98
2018-07-20T08:25:28.748Z,49.98
2018-07-20T08:26:32.174Z,50.09
2018-07-20T08:27:35.576Z,49.86
2018-07-20T08:28:38.976Z,49.81
2018-07-20T08:29:42.349Z,49.70
2018-07-20T08:30:45.788Z,49.73
2018-07-20T08:31:49.207Z,50.10
2018-07-20T08:32:52.660Z,50.15
2018-07-20T08:33:56.165Z,50.25
2018-07-20T08:34:59.551Z,49.97
2018-07-20T08:36:03.002Z,49.80
2018-07-20T08:37:06.520Z,50.22
2018-07-20T08:38:09.972Z,49.95
2018-07-20T08:39:13.375Z,49.92
2018-07-20T08:40:16.814Z,49.99
2018-07-20T08:41:20.718Z,50.03
2018-07-20T08:42:24.205Z,50.27
2018-07-20T08:43:27.628Z,50.69
2018-07-20T08:44:31.014Z,50.64
2018-07-20T08:45:34.448Z,51.03
2018-07-20T08:46:37.969Z,51.50
2018-07-20T08:47:41.310Z,50.83
2018-07-20T08:48:44.745Z,51.19
2018-07-20T08:49:48.144Z,51.58
2018-07-20T08:50:51.540Z,51.55
2018-07-20T08:51:55.039Z,51.33
2018-07-20T08:52:58.432Z,50.81
2018-07-20T08:54:01.921Z,50.84
2018-07-20T08:55:05.541Z,50.67
2018-07-20T08:56:08.963Z,50.99
2018-07-20T08:57:12.396Z,50.91
2018-07-20T08:58:15.797Z,50.49
2018-07-20T08:59:19.316Z,50.57
2018-07-20T09:00:22.757Z,50.49
2018-07-20T09:01:26.170Z,50.10
2018-07-20T09:02:29.592Z,50.06
2018-07-20T09:03:33.039Z,49.83
2018-07-20T09:04:36.696Z,49.52
2018-07-20T09:05:40.123Z,49.42
2018-07-20T09:06:43.644Z,49.25
2018-07-20T09:07:47.042Z,49.62
2018-07-20T09:08:50.464Z,49.74
2018-07-20T09:09:53.885Z,49.47
2018-07-20T09:10:57.283Z,48.77
2018-07-20T09:12:00.715Z,48.75
2018-07-20T09:13:04.129Z,48.90
2018-07-20T09:14:07.538Z,49.17
2018-07-20T09:15:10.940Z,48.88
2018-07-20T09:16:14.475Z,49.20
2018-07-20T09:17:17.884Z,49.05
2018-07-20T09:18:21.298Z,48.92
2018-07-20T09:19:24.810Z,49.37
2018-07-20T09:20:28.280Z,48.96
2018-07-20T09:21:31.762Z,49.22
2018-07-20T09:22:35.266Z,49.32
2018-07-20T09:23:38.696Z,49.17
2018-07-20T09:24:42.291Z,48.88
2018-07-20T09:25:45.691Z,49.87
2018-07-20T09:26:49.104Z,49.19
2018-07-20T09:27:52.529Z,49.70
2018-07-20T09:28:55.961Z,50.23
2018-07-20T09:29:59.342Z,50.54
2018-07-20T09:31:02.754Z,50.60
2018-07-20T09:32:06.639Z,50.44
2018-07-20T09:33:10.222Z,50.19
2018-07-20T09:34:13.754Z,50.45
2018-07-20T09:35:17.153Z,50.78
2018-07-20T09:36:20.628Z,49.99
2018-07-20T09:37:24.055Z,50.37
2018-07-20T09:38:27.468Z,50.11
2018-07-20T09:39:30.900Z,50.87
2018-07-20T09:40:34.530Z,50.93
2018-07-20T09:41:38.085Z,50.67
2018-07-20T09:42:41.595Z,50.68
2018-07-20T09:43:45.128Z,50.85
2018-07-20T09:44:48.780Z,50.44
2018-07-20T09:45:52.306Z,50.80
2018-07-20T09:46:55.705Z,51.10
2018-07-20T09:47:59.144Z,50.65
2018-07-20T09:49:05.645Z,51.22
2018-07-20T09:50:09.104Z,51.05
2018-07-20T09:51:12.610Z,51.05
2018-07-20T09:52:16.322Z,50.84
2018-07-20T09:53:19.966Z,51.31
2018-07-20T09:54:23.719Z,51.38
2018-07-20T09:55:27.202Z,50.99
2018-07-20T09:56:30.721Z,51.61
2018-07-20T09:57:34.156Z,51.17
2018-07-20T09:58:37.598Z,51.20
2018-07-20T09:59:41.612Z,51.36
2018-07-20T10:00:49.558Z,51.29
2018-07-20T10:01:53.844Z,51.55
2018-07-20T10:02:57.594Z,51.34
2018-07-20T10:04:01.069Z,51.21
2018-07-20T10:05:04.602Z,51.44
2018-07-20T10:06:08.019Z,50.65
2018-07-20T10:07:11.624Z,51.06
2018-07-20T10:08:15.048Z,51.28
2018-07-20T10:09:18.444Z,51.45
2018-07-20T10:10:21.845Z,51.67
2018-07-20T10:11:25.476Z,51.31
2018-07-20T10:12:28.930Z,51.41
2018-07-20T10:13:32.334Z,51.38
2018-07-20T10:14:35.736Z,51.79
2018-07-20T10:15:40.091Z,51.79
2018-07-20T10:16:43.508Z,51.51
2018-07-20T10:17:46.941Z,51.06
2018-07-20T10:18:50.346Z,52.01
2018-07-20T10:19:53.772Z,51.34
2018-07-20T10:20:57.233Z,52.02
2018-07-20T10:22:00.707Z,51.16
2018-07-20T10:23:04.214Z,52.22
2018-07-20T10:24:07.624Z,51.50
2018-07-20T10:25:11.158Z,51.22
2018-07-20T10:26:14.563Z,51.40
2018-07-20T10:27:17.994Z,52.01
2018-07-20T10:28:21.468Z,52.00
2018-07-20T10:29:24.863Z,51.58
2018-07-20T10:30:28.261Z,51.54
2018-07-20T10:31:31.655Z,51.77
2018-07-20T10:32:35.073Z,51.53
2018-07-20T10:33:38.532Z,50.91
2018-07-20T10:34:42.055Z,51.33
2018-07-20T10:35:45.443Z,50.89
2018-07-20T10:36:48.963Z,51.30
2018-07-20T10:37:52.510Z,50.97
2018-07-20T10:38:55.907Z,51.54
2018-07-20T10:39:59.304Z,51.47
2018-07-20T10:41:02.777Z,51.40
2018-07-20T10:42:06.246Z,51.06
2018-07-20T10:43:09.721Z,51.13
2018-07-20T10:44:13.475Z,51.60
2018-07-20T10:45:16.942Z,51.37
2018-07-20T10:46:20.360Z,51.39
2018-07-20T10:47:23.752Z,51.52
2018-07-20T10:48:27.172Z,51.83
2018-07-20T10:49:30.585Z,51.61
2018-07-20T10:50:34.004Z,51.10
2018-07-20T10:51:37.412Z,51.19
2018-07-20T10:52:40.818Z,51.08
2018-07-20T10:53:44.324Z,51.66
2018-07-20T10:54:47.752Z,51.52
2018-07-20T10:55:51.182Z,51.56
2018-07-20T10:56:54.603Z,51.20
2018-07-20T10:57:58.139Z,51.50
2018-07-20T10:59:01.562Z,51.52
2018-07-20T11:00:05.494Z,51.23
2018-07-20T11:01:08.900Z,51.28
2018-07-20T11:02:12.321Z,51.70
2018-07-20T11:03:15.771Z,52.12
2018-07-20T11:04:19.216Z,51.55
2018-07-20T11:05:22.633Z,51.41
2018-07-20T11:06:26.053Z,52.07
2018-07-20T11:07:29.457Z,52.29
2018-07-20T11:08:32.834Z,52.00
2018-07-20T11:09:36.260Z,51.93
2018-07-20T11:10:39.700Z,52.35
2018-07-20T11:11:43.108Z,51.43
2018-07-20T11:12:46.509Z,51.51
2018-07-20T11:13:50.002Z,51.33
2018-07-20T11:14:53.505Z,51.77
2018-07-20T11:15:56.919Z,51.44
2018-07-20T11:17:00.327Z,52.10
2018-07-20T11:18:03.725Z,52.02
2018-07-20T11:19:07.128Z,52.02
2018-07-20T11:20:10.532Z,51.68
2018-07-20T11:21:13.949Z,53.36
2018-07-20T11:22:17.361Z,53.09
2018-07-20T11:23:20.782Z,52.79
2018-07-20T11:24:24.180Z,52.06
2018-07-20T11:25:27.626Z,52.83
2018-07-20T11:26:31.026Z,52.89
2018-07-20T11:27:34.428Z,53.34
2018-07-20T11:28:37.976Z,54.58
2018-07-20T11:29:41.510Z,54.45
2018-07-20T11:30:44.942Z,54.58
2018-07-20T11:31:48.321Z,54.94
2018-07-20T11:32:51.720Z,55.09
2018-07-20T11:33:55.098Z,54.75
2018-07-20T11:34:58.502Z,55.09
2018-07-20T11:36:01.874Z,55.40
2018-07-20T11:37:05.273Z,56.24
2018-07-20T11:38:08.676Z,56.00
2018-07-20T11:39:12.077Z,56.43
2018-07-20T11:40:15.512Z,56.60
2018-07-20T11:41:18.899Z,56.47
2018-07-20T11:42:22.330Z,56.85
2018-07-20T11:43:26.190Z,56.61
2018-07-20T11:44:29.592Z,56.73
2018-07-20T11:45:33.133Z,56.25
2018-07-20T11:46:36.550Z,55.54
2018-07-20T11:47:40.283Z,56.01
2018-07-20T11:48:44.455Z,56.06
2018-07-20T11:49:48.261Z,55.56
2018-07-20T11:50:52.735Z,55.25
2018-07-20T11:51:56.922Z,54.93
2018-07-20T11:53:00.675Z,54.68
2018-07-20T11:54:05.411Z,54.89
2018-07-20T11:55:09.457Z,55.00
2018-07-20T11:56:13.424Z,55.40
2018-07-20T11:57:17.552Z,55.20
2018-07-20T11:58:20.964Z,55.39
2018-07-20T11:59:24.437Z,55.38
2018-07-20T12:00:27.868Z,56.35
2018-07-20T12:01:32.388Z,55.30
2018-07-20T12:02:36.697Z,55.55
2018-07-20T12:03:41.288Z,55.36
2018-07-20T12:04:45.742Z,55.40
2018-07-20T12:05:50.398Z,54.78
2018-07-20T12:06:55.063Z,54.24
2018-07-20T12:07:59.446Z,54.25
2018-07-20T12:09:03.414Z,54.86
2018-07-20T12:10:07.204Z,55.00
2018-07-20T12:11:11.043Z,54.72
2018-07-20T12:12:14.526Z,54.38
2018-07-20T12:13:17.910Z,54.88
2018-07-20T12:14:21.338Z,54.23
2018-07-20T12:15:24.777Z,54.70
2018-07-20T12:16:28.205Z,54.54
2018-07-20T12:17:31.624Z,53.77
2018-07-20T12:18:35.168Z,54.11
2018-07-20T12:19:38.611Z,54.07
2018-07-20T12:20:42.033Z,53.40
2018-07-20T12:21:45.436Z,54.10
2018-07-20T12:22:48.844Z,53.19
2018-07-20T12:23:52.313Z,53.22
2018-07-20T12:24:55.807Z,53.39
2018-07-20T12:25:59.363Z,53.81
2018-07-20T12:27:02.766Z,53.31
2018-07-20T12:28:06.225Z,53.50
2018-07-20T12:29:09.646Z,52.82
2018-07-20T12:30:13.044Z,53.53
2018-07-20T12:31:16.467Z,52.41
2018-07-20T12:32:19.885Z,52.32
2018-07-20T12:33:23.300Z,51.99
2018-07-20T12:34:26.698Z,51.98
2018-07-20T12:35:30.097Z,51.74
2018-07-20T12:36:33.596Z,51.10
2018-07-20T12:37:37.021Z,51.46
2018-07-20T12:38:40.457Z,52.17
2018-07-20T12:39:43.862Z,51.83
2018-07-20T12:40:47.274Z,52.21
2018-07-20T12:41:50.682Z,52.50
2018-07-20T12:42:54.176Z,52.08
2018-07-20T12:43:57.579Z,51.85
2018-07-20T12:45:15.715Z,52.76
2018-07-20T12:46:19.166Z,52.34
2018-07-20T12:47:22.599Z,52.56
2018-07-20T12:48:25.973Z,53.10
2018-07-20T12:49:29.380Z,53.48
2018-07-20T12:50:32.845Z,52.98
2018-07-20T12:51:36.562Z,52.59
2018-07-20T12:52:41.052Z,52.87
2018-07-20T12:53:45.420Z,53.10
2018-07-20T12:54:50.075Z,53.05
2018-07-20T12:55:54.525Z,52.17
2018-07-20T12:56:58.887Z,52.59
2018-07-20T12:58:03.512Z,53.01
2018-07-20T12:59:08.090Z,54.04
2018-07-20T13:00:11.514Z,53.16
2018-07-20T13:01:14.913Z,53.01
2018-07-20T13:02:18.313Z,53.52
2018-07-20T13:03:21.788Z,53.05
2018-07-20T13:04:25.241Z,53.33
2018-07-20T13:05:28.691Z,52.64
2018-07-20T13:06:32.258Z,51.88
2018-07-20T13:07:35.656Z,51.92
2018-07-20T13:08:39.088Z,51.69
2018-07-20T13:09:42.495Z,52.08
2018-07-20T13:10:45.896Z,52.60
2018-07-20T13:11:49.375Z,52.36
2018-07-20T13:12:52.814Z,52.79
2018-07-20T13:13:56.248Z,52.74
2018-07-20T13:14:59.622Z,52.62
2018-07-20T13:16:03.041Z,52.07
2018-07-20T13:17:06.484Z,52.58
2018-07-20T13:18:09.986Z,52.27
2018-07-20T13:19:13.362Z,52.18
2018-07-20T13:20:17.007Z,51.74
2018-07-20T13:21:20.469Z,52.09
2018-07-20T13:22:23.865Z,52.21
2018-07-20T13:23:27.237Z,51.86
2018-07-20T13:24:30.645Z,51.59
2018-07-20T13:25:34.884Z,51.40
2018-07-20T13:26:38.290Z,51.72
2018-07-20T13:27:41.704Z,51.90
2018-07-20T13:28:45.108Z,51.76
2018-07-20T13:29:48.542Z,52.06
2018-07-20T13:30:52.074Z,51.98
2018-07-20T13:31:55.462Z,51.69
2018-07-20T13:32:58.861Z,52.56
2018-07-20T13:34:02.269Z,52.18
2018-07-20T13:35:06.399Z,51.48
2018-07-20T13:36:09.808Z,52.10
2018-07-20T13:37:13.250Z,52.20
2018-07-20T13:38:16.654Z,52.30